createdAt,value
2023-12-11T00:00:07.788Z,6.00
2023-12-11T00:02:37.536Z,8.40
2023-12-11T00:05:06.469Z,11.80
2023-12-11T00:07:35.339Z,15.40
2023-12-11T00:10:04.611Z,8.20
2023-12-11T00:12:33.479Z,10.10
2023-12-11T00:15:02.818Z,8.00
2023-12-11T00:17:32.234Z,10.70
2023-12-11T00:20:01.161Z,8.60
2023-12-11T00:22:30.345Z,12.60
2023-12-11T00:24:59.336Z,7.40
2023-12-11T00:27:28.850Z,11.50
2023-12-11T00:29:59.861Z,9.10
2023-12-11T00:32:29.676Z,6.50
2023-12-11T00:34:58.462Z,5.90
2023-12-11T00:37:27.899Z,7.40
2023-12-11T00:39:57.598Z,6.50
2023-12-11T00:42:26.254Z,6.90
2023-12-11T00:44:55.099Z,8.20
2023-12-11T00:47:24.176Z,6.80
2023-12-11T00:49:53.075Z,10.30
2023-12-11T00:52:22.283Z,8.70
2023-12-11T00:54:51.265Z,8.90
2023-12-11T00:57:19.950Z,6.80
2023-12-11T00:59:49.227Z,5.50
2023-12-11T01:02:19.447Z,5.80
2023-12-11T01:04:48.163Z,4.60
2023-12-11T01:07:17.316Z,4.30
2023-12-11T01:09:46.263Z,5.10
2023-12-11T01:12:15.024Z,4.50
2023-12-11T01:14:44.811Z,3.50
2023-12-11T01:17:37.019Z,4.90
2023-12-11T01:20:03.000Z,4.10
2023-12-11T01:22:31.809Z,4.20
2023-12-11T01:25:04.465Z,5.10
2023-12-11T01:27:34.136Z,5.50
2023-12-11T01:30:03.214Z,5.90
2023-12-11T01:32:32.117Z,6.20
2023-12-11T01:35:01.110Z,6.20
2023-12-11T01:37:30.009Z,6.40
2023-12-11T01:39:59.315Z,6.00
2023-12-11T01:42:28.357Z,4.70
2023-12-11T01:44:57.021Z,5.30
2023-12-11T01:47:26.559Z,3.90
2023-12-11T01:49:55.977Z,4.50
2023-12-11T01:52:26.219Z,4.40
2023-12-11T01:54:55.285Z,4.30
2023-12-11T01:57:24.522Z,3.40
2023-12-11T01:59:53.226Z,2.70
2023-12-11T02:02:22.430Z,6.40
2023-12-11T02:04:51.737Z,3.70
2023-12-11T02:07:20.876Z,4.30
2023-12-11T02:09:49.924Z,3.10
2023-12-11T02:12:19.008Z,3.80
2023-12-11T02:14:47.735Z,3.60
2023-12-11T02:17:16.888Z,3.50
2023-12-11T02:19:46.124Z,3.40
2023-12-11T02:22:16.200Z,2.80
2023-12-11T02:27:18.193Z,2.60
2023-12-11T02:29:46.879Z,3.20
2023-12-11T02:32:17.896Z,3.10
2023-12-11T02:34:49.228Z,3.80
2023-12-11T02:37:18.273Z,4.10
2023-12-11T02:39:47.720Z,4.90
2023-12-11T02:42:16.876Z,21.70
2023-12-11T02:44:45.805Z,8.40
2023-12-11T02:47:14.744Z,4.10
2023-12-11T02:49:43.513Z,3.60
2023-12-11T02:52:12.506Z,4.10
2023-12-11T02:54:41.638Z,5.40
2023-12-11T02:57:12.111Z,3.10
2023-12-11T02:59:40.747Z,2.90
2023-12-11T03:02:09.896Z,2.40
2023-12-11T03:04:39.824Z,2.60
2023-12-11T03:07:08.547Z,3.10
2023-12-11T03:09:38.262Z,2.90
2023-12-11T03:12:07.809Z,2.60
2023-12-11T03:14:36.481Z,3.30
2023-12-11T03:17:05.414Z,2.40
2023-12-11T03:19:35.149Z,3.40
2023-12-11T03:22:03.947Z,1.90
2023-12-11T03:24:33.333Z,1.90
2023-12-11T03:27:02.248Z,1.70
2023-12-11T03:29:30.864Z,1.80
2023-12-11T03:31:59.812Z,1.70
2023-12-11T03:34:29.023Z,2.40
2023-12-11T03:36:57.777Z,2.00
2023-12-11T03:39:29.710Z,2.40
2023-12-11T03:41:58.670Z,1.90
2023-12-11T03:44:27.721Z,1.90
2023-12-11T03:46:56.580Z,1.20
2023-12-11T03:49:25.941Z,2.60
2023-12-11T03:51:55.004Z,1.80
2023-12-11T03:54:24.180Z,1.80
2023-12-11T03:56:53.642Z,1.30
2023-12-11T03:59:24.764Z,1.40
2023-12-11T04:01:53.602Z,1.50
2023-12-11T04:04:23.205Z,1.30
2023-12-11T04:06:52.284Z,1.10
2023-12-11T04:09:20.922Z,1.30
2023-12-11T04:11:50.202Z,1.30
2023-12-11T04:14:19.156Z,1.30
2023-12-11T04:16:47.818Z,2.10
2023-12-11T04:19:16.760Z,1.60
2023-12-11T04:21:46.253Z,1.40
2023-12-11T04:24:15.264Z,1.60
2023-12-11T04:26:44.448Z,2.30
2023-12-11T04:29:13.622Z,1.30
2023-12-11T04:31:42.226Z,5.90
2023-12-11T04:34:11.453Z,1.70
2023-12-11T04:36:44.237Z,1.70
2023-12-11T04:39:14.277Z,1.60
2023-12-11T04:41:43.166Z,1.80
2023-12-11T04:44:11.988Z,1.80
2023-12-11T04:46:40.999Z,2.40
2023-12-11T04:49:09.791Z,2.20
2023-12-11T04:51:38.910Z,1.90
2023-12-11T04:54:10.524Z,1.80
2023-12-11T04:56:39.637Z,1.80
2023-12-11T04:59:08.296Z,1.90
2023-12-11T05:01:38.348Z,1.60
2023-12-11T05:04:07.252Z,2.10
2023-12-11T05:06:35.983Z,2.60
2023-12-11T05:09:05.187Z,2.20
2023-12-11T05:11:34.591Z,2.00
2023-12-11T05:14:03.922Z,2.50
2023-12-11T05:16:33.081Z,3.40
2023-12-11T05:19:07.373Z,2.30
2023-12-11T05:21:36.782Z,2.70
2023-12-11T05:24:05.763Z,2.90
2023-12-11T05:26:34.473Z,3.80
2023-12-11T05:29:05.436Z,3.40
2023-12-11T05:31:34.677Z,3.70
2023-12-11T05:34:04.260Z,4.10
2023-12-11T05:36:34.914Z,4.60
2023-12-11T05:39:04.057Z,4.20
2023-12-11T05:41:32.795Z,6.90
2023-12-11T05:44:01.598Z,13.00
2023-12-11T05:46:30.741Z,9.10
2023-12-11T05:48:59.793Z,7.20
2023-12-11T05:51:29.585Z,3.90
2023-12-11T05:53:58.414Z,4.60
2023-12-11T05:56:27.367Z,4.60
2023-12-11T05:58:56.825Z,4.90
2023-12-11T06:01:27.440Z,3.50
2023-12-11T06:03:56.452Z,3.50
2023-12-11T06:06:26.881Z,3.40
2023-12-11T06:08:56.777Z,3.70
2023-12-11T06:11:25.835Z,3.60
2023-12-11T06:13:54.680Z,3.30
2023-12-11T06:16:23.655Z,3.90
2023-12-11T06:18:52.497Z,4.30
2023-12-11T06:21:23.646Z,5.60
2023-12-11T06:23:52.302Z,4.70
2023-12-11T06:26:27.315Z,6.80
2023-12-11T06:28:56.651Z,4.50
2023-12-11T06:31:26.672Z,4.10
2023-12-11T06:36:27.048Z,10.20
2023-12-11T06:38:56.312Z,5.70
2023-12-11T06:41:25.482Z,4.70
2023-12-11T06:43:56.024Z,2.80
2023-12-11T06:46:26.957Z,3.70
2023-12-11T06:48:55.997Z,3.90
2023-12-11T06:51:26.216Z,5.90
2023-12-11T06:54:00.408Z,3.30
2023-12-11T06:56:33.333Z,5.00
2023-12-11T06:59:02.362Z,4.80
2023-12-11T07:01:32.727Z,8.30
2023-12-11T07:06:31.288Z,8.70
2023-12-11T07:09:00.552Z,6.50
2023-12-11T07:11:29.286Z,7.00
2023-12-11T07:14:00.379Z,8.80
2023-12-11T07:16:29.244Z,16.40
2023-12-11T07:18:58.347Z,12.70
2023-12-11T07:21:28.096Z,7.50
2023-12-11T07:23:57.333Z,5.50
2023-12-11T07:26:26.167Z,7.70
2023-12-11T07:28:55.564Z,8.00
2023-12-11T07:31:26.528Z,5.40
2023-12-11T07:33:56.926Z,7.80
2023-12-11T07:36:26.503Z,8.90
2023-12-11T07:38:55.273Z,7.60
2023-12-11T07:41:24.246Z,10.70
2023-12-11T07:43:53.381Z,5.20
2023-12-11T07:46:23.519Z,4.20
2023-12-11T07:48:53.502Z,4.20
2023-12-11T07:51:27.052Z,4.00
2023-12-11T07:54:00.567Z,4.70
2023-12-11T07:56:31.618Z,5.10
2023-12-11T07:59:00.283Z,6.00
2023-12-11T08:01:33.490Z,5.40
2023-12-11T08:04:03.093Z,4.30
2023-12-11T08:06:31.916Z,4.60
2023-12-11T08:09:01.785Z,4.10
2023-12-11T08:11:30.787Z,4.10
2023-12-11T08:13:59.522Z,4.80
2023-12-11T08:16:28.541Z,5.40
2023-12-11T08:18:57.452Z,6.20
2023-12-11T08:21:26.603Z,7.60
2023-12-11T08:23:55.897Z,9.30
2023-12-11T08:26:25.694Z,4.70
2023-12-11T08:28:55.483Z,3.90
2023-12-11T08:31:25.880Z,3.20
2023-12-11T08:33:55.005Z,3.90
2023-12-11T08:36:23.918Z,4.20
2023-12-11T08:38:53.334Z,9.70
2023-12-11T08:41:22.376Z,5.80
2023-12-11T08:43:51.128Z,8.30
2023-12-11T08:46:20.649Z,6.50
2023-12-11T08:48:50.686Z,7.60
2023-12-11T08:51:20.708Z,7.60
2023-12-11T08:53:49.965Z,5.30
2023-12-11T08:56:21.296Z,4.80
2023-12-11T08:58:50.091Z,3.20
2023-12-11T09:01:20.050Z,5.10
2023-12-11T09:03:50.150Z,4.10
2023-12-11T09:06:19.194Z,4.10
2023-12-11T09:08:48.162Z,3.70
2023-12-11T09:11:18.538Z,4.20
2023-12-11T09:13:47.857Z,8.40
2023-12-11T09:16:17.251Z,6.60
2023-12-11T09:18:46.356Z,9.10
2023-12-11T09:21:15.492Z,10.50
2023-12-11T09:23:44.419Z,11.00
2023-12-11T09:26:14.168Z,8.40
2023-12-11T09:28:50.774Z,5.40
2023-12-11T09:31:21.818Z,4.60
2023-12-11T09:33:53.006Z,4.10
2023-12-11T09:36:22.066Z,4.30
2023-12-11T09:38:51.066Z,3.10
2023-12-11T09:41:20.093Z,3.30
2023-12-11T09:43:50.082Z,2.80
2023-12-11T09:46:21.043Z,2.20
2023-12-11T09:48:50.452Z,2.50
2023-12-11T09:51:19.353Z,3.50
2023-12-11T09:53:49.988Z,3.20
2023-12-11T09:56:19.884Z,3.20
2023-12-11T09:58:48.636Z,4.30
2023-12-11T10:01:17.977Z,11.70
2023-12-11T10:03:46.974Z,4.10
2023-12-11T10:06:18.038Z,3.30
2023-12-11T10:08:48.907Z,7.20
2023-12-11T10:11:19.408Z,8.10
2023-12-11T10:13:50.669Z,10.00
2023-12-11T10:16:32.606Z,13.40
2023-12-11T10:19:04.641Z,10.80
2023-12-11T10:21:42.745Z,18.60
2023-12-11T10:24:16.484Z,7.80
2023-12-11T10:26:55.057Z,5.50
2023-12-11T10:29:28.708Z,8.30
2023-12-11T10:32:08.409Z,7.00
2023-12-11T10:34:53.165Z,5.70
2023-12-11T10:37:31.595Z,10.70
2023-12-11T10:40:00.655Z,8.70
2023-12-11T10:42:29.616Z,9.30
2023-12-11T10:44:58.742Z,7.30
2023-12-11T10:47:28.362Z,11.10
2023-12-11T10:50:02.870Z,7.80
2023-12-11T10:52:34.078Z,8.00
2023-12-11T10:55:03.662Z,8.30
2023-12-11T10:57:33.057Z,6.60
2023-12-11T11:00:02.876Z,4.80
2023-12-11T11:02:34.267Z,5.50
2023-12-11T11:05:03.303Z,6.60
2023-12-11T11:07:39.842Z,5.80
2023-12-11T11:10:35.256Z,5.60
2023-12-11T11:13:21.587Z,5.10
2023-12-11T11:15:55.079Z,5.70
2023-12-11T11:18:23.853Z,10.00
2023-12-11T11:21:14.562Z,18.60
2023-12-11T11:23:47.489Z,24.50
2023-12-11T11:26:35.735Z,26.80
2023-12-11T11:29:07.257Z,22.30
2023-12-11T11:31:52.959Z,20.60
2023-12-11T11:37:19.351Z,14.30
2023-12-11T11:40:05.048Z,9.30
2023-12-11T11:42:36.270Z,8.20
2023-12-11T11:45:09.428Z,11.20
2023-12-11T11:47:38.915Z,13.20
2023-12-11T11:50:15.334Z,20.70
2023-12-11T11:52:47.799Z,21.10
2023-12-11T11:55:25.708Z,57.50
2023-12-11T11:57:55.867Z,35.50
2023-12-11T12:00:26.593Z,34.00
2023-12-11T12:03:06.920Z,15.60
2023-12-11T12:05:39.795Z,17.60
2023-12-11T12:08:09.834Z,15.00
2023-12-11T12:10:38.557Z,12.40
2023-12-11T12:13:07.299Z,12.00
2023-12-11T12:15:46.399Z,11.60
2023-12-11T12:18:25.042Z,14.40
2023-12-11T12:21:06.094Z,9.80
2023-12-11T12:23:36.232Z,7.80
2023-12-11T12:26:16.138Z,6.90
2023-12-11T12:29:02.162Z,6.40
2023-12-11T12:31:32.332Z,7.40
2023-12-11T12:34:01.485Z,9.30
2023-12-11T12:36:31.537Z,6.40
2023-12-11T12:39:01.497Z,9.30
2023-12-11T12:41:31.215Z,11.20
2023-12-11T12:44:03.812Z,11.90
2023-12-11T12:46:43.138Z,10.00
2023-12-11T12:49:13.829Z,18.20
2023-12-11T12:51:50.345Z,13.80
2023-12-11T12:54:21.090Z,9.50
2023-12-11T12:56:59.701Z,12.30
2023-12-11T12:59:32.242Z,12.30
2023-12-11T13:02:03.392Z,6.80
2023-12-11T13:04:33.845Z,8.90
2023-12-11T13:07:12.443Z,6.40
2023-12-11T13:09:41.401Z,5.30
2023-12-11T13:12:10.528Z,4.60
2023-12-11T13:14:39.363Z,4.80
2023-12-11T13:17:08.585Z,4.80
2023-12-11T13:19:37.564Z,6.40
2023-12-11T13:22:09.952Z,12.50
2023-12-11T13:24:38.897Z,5.50
2023-12-11T13:27:08.352Z,8.80
2023-12-11T13:29:37.761Z,8.00
2023-12-11T13:32:07.479Z,8.50
2023-12-11T13:34:36.339Z,8.60
2023-12-11T13:37:05.430Z,7.60
2023-12-11T13:39:34.511Z,8.50
2023-12-11T13:42:03.206Z,22.40
2023-12-11T13:44:32.304Z,13.20
2023-12-11T13:47:01.431Z,13.70
2023-12-11T13:49:30.613Z,15.80
2023-12-11T13:51:59.369Z,13.10
2023-12-11T13:54:30.169Z,14.60
2023-12-11T13:56:58.740Z,19.40
2023-12-11T13:59:27.592Z,38.50
2023-12-11T14:01:58.935Z,67.00
2023-12-11T14:04:29.990Z,18.80
2023-12-11T14:07:01.151Z,19.70
2023-12-11T14:09:33.467Z,19.20
2023-12-11T14:12:03.332Z,17.60
2023-12-11T14:14:32.119Z,26.90
2023-12-11T14:17:01.224Z,19.10
2023-12-11T14:19:32.070Z,17.50
2023-12-11T14:22:01.221Z,18.70
2023-12-11T14:24:30.021Z,13.80
2023-12-11T14:26:59.175Z,13.90
2023-12-11T14:29:27.979Z,13.20
2023-12-11T14:31:56.668Z,15.80
2023-12-11T14:34:25.732Z,15.10
2023-12-11T14:36:54.694Z,19.80
2023-12-11T14:39:27.666Z,29.20
2023-12-11T14:41:56.754Z,21.30
2023-12-11T14:44:25.811Z,20.90
2023-12-11T14:46:55.072Z,16.90
2023-12-11T14:49:24.398Z,14.60
2023-12-11T14:51:53.484Z,20.50
2023-12-11T14:54:22.182Z,20.00
2023-12-11T14:56:51.240Z,22.40
2023-12-11T14:59:20.787Z,15.80
2023-12-11T15:01:49.985Z,23.30
2023-12-11T15:04:19.232Z,14.00
2023-12-11T15:06:48.232Z,22.70
2023-12-11T15:09:18.543Z,17.40
2023-12-11T15:11:47.531Z,44.30
2023-12-11T15:14:16.674Z,63.30
2023-12-11T15:16:47.306Z,58.30
2023-12-11T15:19:16.502Z,70.90
2023-12-11T15:21:45.505Z,79.60
2023-12-11T15:24:14.439Z,35.70
2023-12-11T15:26:44.828Z,29.40
2023-12-11T15:29:13.904Z,31.80
2023-12-11T15:31:43.843Z,84.00
2023-12-11T15:36:44.009Z,72.20
2023-12-11T15:39:13.899Z,50.20
2023-12-11T15:41:42.746Z,50.30
2023-12-11T15:44:13.844Z,33.80
2023-12-11T15:46:44.269Z,42.10
2023-12-11T15:49:16.424Z,30.90
2023-12-11T15:51:53.554Z,23.70
2023-12-11T15:54:22.516Z,38.80
2023-12-11T15:56:51.155Z,21.90
2023-12-11T15:59:20.195Z,33.70
2023-12-11T16:01:49.468Z,41.10
2023-12-11T16:04:18.396Z,30.10
2023-12-11T16:06:47.435Z,42.00
2023-12-11T16:09:19.279Z,37.60
2023-12-11T16:11:48.896Z,32.30
2023-12-11T16:14:17.988Z,28.80
2023-12-11T16:16:46.553Z,25.70
2023-12-11T16:19:19.856Z,22.60
2023-12-11T16:21:48.931Z,35.20
2023-12-11T16:24:19.350Z,31.50
2023-12-11T16:26:49.791Z,25.10
2023-12-11T16:29:22.509Z,25.90
2023-12-11T16:31:58.359Z,23.50
2023-12-11T16:34:29.601Z,78.70
2023-12-11T16:36:58.858Z,28.50
2023-12-11T16:39:27.583Z,28.90
2023-12-11T16:41:56.967Z,28.80
2023-12-11T16:44:25.995Z,28.40
2023-12-11T16:46:54.995Z,27.90
2023-12-11T16:49:23.809Z,24.30
2023-12-11T16:51:52.648Z,34.30
2023-12-11T16:54:21.970Z,20.10
2023-12-11T16:56:51.290Z,28.00
2023-12-11T16:59:20.276Z,24.00
2023-12-11T17:01:49.596Z,18.30
2023-12-11T17:04:18.402Z,27.10
2023-12-11T17:06:47.640Z,16.40
2023-12-11T17:09:17.124Z,32.20
2023-12-11T17:11:47.180Z,24.10
2023-12-11T17:14:16.331Z,24.70
2023-12-11T17:16:45.326Z,86.80
2023-12-11T17:19:14.108Z,45.50
2023-12-11T17:21:43.908Z,48.40
2023-12-11T17:24:13.691Z,51.50
2023-12-11T17:26:42.543Z,42.90
2023-12-11T17:29:11.511Z,38.00
2023-12-11T17:31:40.673Z,22.20
2023-12-11T17:34:09.827Z,68.40
2023-12-11T17:36:38.703Z,35.20
2023-12-11T17:39:07.545Z,28.30
2023-12-11T17:41:36.231Z,26.40
2023-12-11T17:44:05.100Z,28.80
2023-12-11T17:46:33.864Z,25.10
2023-12-11T17:49:02.873Z,23.50
2023-12-11T17:51:31.757Z,15.30
2023-12-11T17:54:00.824Z,24.60
2023-12-11T17:56:29.746Z,18.20
2023-12-11T17:58:58.763Z,15.20
2023-12-11T18:01:27.927Z,14.50
2023-12-11T18:04:05.738Z,27.70
2023-12-11T18:06:53.058Z,23.20
2023-12-11T18:09:37.868Z,19.40
2023-12-11T18:12:24.784Z,20.90
2023-12-11T18:15:07.871Z,16.80
2023-12-11T18:17:50.999Z,9.50
2023-12-11T18:20:30.173Z,12.40
2023-12-11T18:23:12.919Z,11.20
2023-12-11T18:25:53.686Z,18.70
2023-12-11T18:28:38.749Z,15.90
2023-12-11T18:31:29.221Z,7.80
2023-12-11T18:34:16.434Z,18.90
2023-12-11T18:37:06.348Z,23.40
2023-12-11T18:39:48.943Z,5.60
2023-12-11T18:42:23.672Z,6.50
2023-12-11T18:44:53.272Z,5.90
2023-12-11T18:47:21.913Z,6.20
2023-12-11T18:49:50.976Z,11.80
2023-12-11T18:52:20.081Z,6.50
2023-12-11T18:54:49.275Z,5.10
2023-12-11T18:57:18.323Z,4.90
2023-12-11T18:59:47.254Z,2.70
2023-12-11T19:02:16.531Z,9.10
2023-12-11T19:04:45.904Z,5.80
2023-12-11T19:07:15.258Z,2.90
2023-12-11T19:09:43.920Z,2.10
2023-12-11T19:12:12.871Z,3.30
2023-12-11T19:14:41.805Z,4.40
2023-12-11T19:17:10.391Z,9.90
2023-12-11T19:19:39.517Z,14.20
2023-12-11T19:22:09.037Z,9.90
2023-12-11T19:24:37.818Z,4.60
2023-12-11T19:27:06.501Z,5.20
2023-12-11T19:29:35.877Z,4.50
2023-12-11T19:32:05.009Z,15.80
2023-12-11T19:34:34.126Z,5.10
2023-12-11T19:37:05.882Z,3.20
2023-12-11T19:39:35.093Z,5.80
2023-12-11T19:42:04.121Z,2.50
2023-12-11T19:44:32.761Z,5.20
2023-12-11T19:47:02.289Z,3.30
2023-12-11T19:49:31.310Z,2.40
2023-12-11T19:51:59.977Z,2.70
2023-12-11T19:54:29.125Z,3.90
2023-12-11T19:56:58.593Z,2.20
2023-12-11T19:59:27.254Z,3.40
2023-12-11T20:01:56.315Z,1.40
2023-12-11T20:04:25.653Z,3.50
2023-12-11T20:06:54.337Z,2.00
2023-12-11T20:09:23.321Z,1.60
2023-12-11T20:12:03.338Z,1.40
2023-12-11T20:14:39.689Z,8.50
2023-12-11T20:17:09.069Z,5.50
2023-12-11T20:19:38.111Z,2.00
2023-12-11T20:22:07.264Z,3.20
2023-12-11T20:24:36.320Z,2.00
2023-12-11T20:27:05.302Z,1.90
2023-12-11T20:29:34.205Z,1.80
2023-12-11T20:32:04.097Z,1.90
2023-12-11T20:34:32.829Z,2.50
2023-12-11T20:37:01.909Z,2.40
2023-12-11T20:39:32.344Z,3.10
2023-12-11T20:42:00.974Z,2.90
2023-12-11T20:44:30.112Z,3.80
2023-12-11T20:46:59.216Z,2.80
2023-12-11T20:49:28.017Z,2.40
2023-12-11T20:51:57.223Z,2.20
2023-12-11T20:54:29.191Z,1.80
2023-12-11T20:56:58.884Z,2.20
2023-12-11T20:59:27.777Z,1.80
2023-12-11T21:01:56.970Z,1.90
2023-12-11T21:04:27.290Z,1.90
2023-12-11T21:06:57.163Z,1.80
2023-12-11T21:09:26.370Z,1.80
2023-12-11T21:11:58.211Z,5.30
2023-12-11T21:14:26.977Z,1.70
2023-12-11T21:16:56.230Z,1.00
2023-12-11T21:19:26.627Z,1.90
2023-12-11T21:21:55.782Z,1.80
2023-12-11T21:24:24.573Z,2.10
2023-12-11T21:26:54.728Z,2.20
2023-12-11T21:29:24.609Z,1.80
2023-12-11T21:31:54.087Z,1.30
2023-12-11T21:34:26.328Z,1.10
2023-12-11T21:36:55.782Z,2.00
2023-12-11T21:39:24.664Z,1.00
2023-12-11T21:41:53.446Z,2.80
2023-12-11T21:44:22.564Z,6.60
2023-12-11T21:46:51.265Z,3.00
2023-12-11T21:49:21.237Z,1.90
2023-12-11T21:51:51.571Z,5.20
2023-12-11T21:54:22.251Z,5.80
2023-12-11T21:56:51.155Z,4.70
2023-12-11T21:59:21.348Z,3.90
2023-12-11T22:01:53.940Z,5.30
2023-12-11T22:04:22.712Z,6.50
2023-12-11T22:06:51.377Z,2.70
2023-12-11T22:09:22.483Z,3.80
2023-12-11T22:11:51.070Z,3.50
2023-12-11T22:14:19.666Z,4.60
2023-12-11T22:16:48.920Z,5.80
2023-12-11T22:19:18.880Z,4.80
2023-12-11T22:21:48.348Z,4.20
2023-12-11T22:24:20.406Z,6.30
2023-12-11T22:26:49.053Z,3.80
2023-12-11T22:29:17.652Z,6.10
2023-12-11T22:31:48.467Z,4.00
2023-12-11T22:34:17.654Z,4.00
2023-12-11T22:36:48.859Z,3.10
2023-12-11T22:39:19.153Z,2.50
2023-12-11T22:41:47.875Z,2.70
2023-12-11T22:44:16.452Z,2.10
2023-12-11T22:46:45.560Z,2.80
2023-12-11T22:49:17.954Z,2.30
2023-12-11T22:51:47.136Z,2.60
2023-12-11T22:54:19.158Z,2.10
2023-12-11T22:56:48.330Z,1.80
2023-12-11T22:59:16.905Z,1.70
2023-12-11T23:01:45.923Z,1.50
2023-12-11T23:04:15.386Z,1.00
2023-12-11T23:06:44.132Z,0.70
2023-12-11T23:09:15.716Z,1.30
2023-12-11T23:11:44.662Z,2.00
2023-12-11T23:14:13.254Z,1.50
2023-12-11T23:16:42.209Z,1.30
2023-12-11T23:19:11.483Z,1.40
2023-12-11T23:21:40.257Z,1.70
2023-12-11T23:24:09.065Z,1.20
2023-12-11T23:26:38.023Z,1.20
2023-12-11T23:29:06.580Z,1.20
2023-12-11T23:31:35.813Z,1.00
2023-12-11T23:34:05.281Z,1.50
2023-12-11T23:36:34.300Z,1.00
2023-12-11T23:39:04.127Z,1.00
2023-12-11T23:44:01.779Z,5.90
2023-12-11T23:46:31.103Z,2.40
2023-12-11T23:49:00.319Z,3.80
2023-12-11T23:51:29.119Z,10.40
2023-12-11T23:53:58.418Z,3.60
2023-12-11T23:56:27.176Z,3.10
2023-12-11T23:58:55.812Z,6.10
